Alleghany, Virginia
Current Conditions -  °F | °C
As of 6:55 PM on Monday 22 Dec 2014 (Local Time) from KHSP Reporting Station
Moderate Fog Moderate Fog  
Wind Chill: 25°   Ceiling: 100
Heat Index: 32°   Visibility: 0mi
Dew Point: 32°   Wind: 8mph
Humidity: 100%   Direction: 110°ESE
Pressure: 29.97"   Gusts: NA
Location:  37.7731°N, 80.0632°W
Report Text: KHSP 222355Z AUTO 11007KT M1/4SM FG OVC001 00/00 A2997 RMK AO2 T00000000 10005 21014
Loading
Personal Weather Stations






























Interactive Weather Map New forecast layout! Learn more

10-Day Weather Forecast

Advertisements
Track Severe Weather on mobile